CheckWX is a tool to help pilots better visualize weather data.  It is not intended as a substitute for an official pre-flight weather briefing.

16:34:10 UTC

DAON TAF
Zenata – Messali El Hadj Airport
Tlemcen, Algeria
TAF DAON 261100Z 2612/2712 VRB02KT 9999 SCT030 SCT100 BECMG 2613/2615 35015KT PROB40 TEMPO 2618/2703 5000 -TSRA FEW023CB

Mar-26@
12:00 UTC

Mar-26 @ 12:00 UTC

Mar-26@
13:00 UTC

Mar-26 @ 13:00 UTC

TAF DAON 261100Z 2612/2712 VRB02KT 9999 SCT030 SCT100

Expired

Wind
  • Variable at 2 KTS
Cloud Levels
  • Scattered at 3,000' AGL
  • Scattered at 10,000' AGL

Mar-26@
13:00 UTC

Mar-26 @ 13:00 UTC

Mar-27@
12:00 UTC

Mar-27 @ 12:00 UTC

BECMG 2613/2615 35015KT

Becoming

Becoming Conditions expected by Tue, Mar 26, 2019 @ 15:00 UTC

Wind
  • 350° at 15 KTS
Cloud Levels
  • Scattered at 3,000' AGL
  • Scattered at 10,000' AGL

Mar-26@
18:00 UTC

Mar-26 @ 18:00 UTC

Mar-27@
03:00 UTC

Mar-27 @ 03:00 UTC

PROB40 TEMPO 2618/2703 5000 -TSRA FEW023CB

Temporary - 40% Likelihood

Temporary - 40% Likelihood during this time.

Conditions
Light Thunderstorm, Light Rain
Cloud Levels
  • Few at 2,300' AGL